| time (UTC) | temp F | wind direction | speed knots | gust knots | rain 1hr in | rain 24hr in | rain mn in | humidity % | barometer mb |
| 20260502205412 | 66 | 0 | 4.3 | 7.8 | 0.00 | 0.00 | 0.00 | 33 | 1022.4 |
| 20260502204913 | 66 | 48 | 0.9 | 4.3 | 0.00 | 0.00 | 0.00 | 35 | 1022.1 |
| 20260502203913 | 66 | 0 | 2.6 | 6.1 | 0.00 | 0.00 | 0.00 | 33 | 1020.3 |
| 20260502203413 | 65 | 0 | 2.6 | 5.2 | 0.00 | 0.00 | 0.00 | 34 | 1021.6 |
| 20260502202912 | 66 | 3 | 2.6 | 4.3 | 0.00 | 0.00 | 0.00 | 36 | 1022.2 |
| 20260502202412 | 66 | 298 | 2.6 | 4.3 | 0.00 | 0.00 | 0.00 | 34 | 1022.3 |
| 20260502201914 | 65 | 1 | 1.7 | 4.3 | 0.00 | 0.00 | 0.00 | 33 | 1022.1 |
| 20260502200911 | 65 | 0 | 2.6 | 6.1 | 0.00 | 0.00 | 0.00 | 34 | 1022.8 |
| 20260502200412 | 65 | 10 | 2.6 | 5.2 | 0.00 | 0.00 | 0.00 | 34 | 1022.8 |
| 20260502195913 | 65 | 168 | 3.5 | 4.3 | 0.00 | 0.00 | 0.00 | 33 | 1022.9 |
| 20260502195411 | 65 | 0 | 0.9 | 5.2 | 0.00 | 0.00 | 0.00 | 31 | 1023.0 |
| 20260502194912 | 65 | 285 | 4.3 | 5.2 | 0.00 | 0.00 | 0.00 | 40 | 1023.0 |
| 20260502194412 | 65 | 324 | 0.9 | 4.3 | 0.00 | 0.00 | 0.00 | 32 | 1023.1 |
| 20260502193913 | 64 | 305 | 2.6 | 4.3 | 0.00 | 0.00 | 0.00 | 33 | 1023.1 |
| 20260502193412 | 64 | 0 | 3.5 | 4.3 | 0.00 | 0.00 | 0.00 | 35 | 1023.2 |
| 20260502192912 | 63 | 279 | 2.6 | 5.2 | 0.00 | 0.00 | 0.00 | 32 | 1023.2 |
| 20260502192410 | 63 | 310 | 1.7 | 5.2 | 0.00 | 0.00 | 0.00 | 37 | 1023.4 |
| 20260502191912 | 63 | 0 | 2.6 | 4.3 | 0.00 | 0.00 | 0.00 | 42 | 1023.4 |
| 20260502190912 | 63 | 0 | 1.7 | 4.3 | 0.00 | 0.00 | 0.00 | 34 | 1023.6 |
| 20260502185411 | 62 | 0 | 4.3 | 6.1 | 0.00 | 0.00 | 0.00 | 36 | 1023.7 |
| 20260502184909 | 62 | 0 | 1.7 | 5.2 | 0.00 | 0.00 | 0.00 | 35 | 1023.8 |
| 20260502183911 | 63 | 357 | 1.7 | 5.2 | 0.00 | 0.00 | 0.00 | 35 | 1023.9 |
| 20260502183410 | 63 | 286 | 3.5 | 5.2 | 0.00 | 0.00 | 0.00 | 35 | 1023.9 |
| 20260502182910 | 63 | 93 | 2.6 | 5.2 | 0.00 | 0.00 | 0.00 | 36 | 1024.1 |
| 20260502182409 | 62 | 18 | 2.6 | 5.2 | 0.00 | 0.00 | 0.00 | 39 | 1024.2 |
| 20260502181909 | 62 | 4 | 1.7 | 5.2 | 0.00 | 0.00 | 0.00 | 35 | 1024.2 |
| 20260502180409 | 62 | 16 | 2.6 | 5.2 | 0.00 | 0.00 | 0.00 | 34 | 1024.9 |
| 20260502170409 | 60 | 14 | 3.5 | 6.1 | 0.00 | 0.00 | 0.00 | 36 | 1024.5 |
| 20260502163908 | 59 | 0 | 0.9 | 5.2 | 0.00 | 0.00 | 0.00 | 40 | 1024.5 |
| 20260502162907 | 58 | 309 | 2.6 | 4.3 | 0.00 | 0.00 | 0.00 | 43 | 1024.6 |
| 20260502161908 | 58 | 0 | 1.7 | 6.1 | 0.00 | 0.00 | 0.00 | 43 | 1024.5 |
| 20260502161408 | 58 | 0 | 2.6 | 6.1 | 0.00 | 0.00 | 0.00 | 40 | 1024.5 |
| 20260502160906 | 58 | 0 | 2.6 | 4.3 | 0.00 | 0.00 | 0.00 | 45 | 1024.6 |
| 20260502160406 | 57 | 0 | 0.9 | 5.2 | 0.00 | 0.00 | 0.00 | 43 | 1024.6 |
| 20260502151407 | 55 | 11 | 0.0 | 2.6 | 0.00 | 0.00 | 0.00 | 44 | 1024.9 |
| 20260502150906 | 55 | 11 | 0.0 | 2.6 | 0.00 | 0.00 | 0.00 | 42 | 1024.9 |
| 20260502150406 | 55 | 32 | 0.0 | 1.7 | 0.00 | 0.00 | 0.00 | 45 | 1024.9 |
| 20260502130402 | 38 | 24 | 0.0 | 0.0 | 0.00 | 0.00 | 0.00 | 65 | 1024.5 |
| 20260502123403 | 38 | 23 | 0.0 | 3.5 | 0.00 | 0.00 | 0.00 | 63 | 1024.5 |
| 20260502122401 | 36 | 124 | 0.0 | 0.9 | 0.00 | 0.00 | 0.00 | 64 | 1024.3 |
| 20260502121902 | 36 | 124 | 0.0 | 0.9 | 0.00 | 0.00 | 0.00 | 66 | 1024.3 |
| 20260502121401 | 36 | 124 | 0.0 | 0.9 | 0.00 | 0.00 | 0.00 | 65 | 1024.3 |
| 20260502120900 | 37 | 124 | 0.0 | 0.0 | 0.00 | 0.00 | 0.00 | 64 | 1024.3 |
| 20260502115902 | 37 | 124 | 0.0 | 0.9 | 0.00 | 0.00 | 0.00 | 64 | 1024.3 |
| 20260502115400 | 37 | 124 | 0.0 | 0.0 | 0.00 | 0.00 | 0.00 | 64 | 1024.3 |
| 20260502114400 | 37 | 124 | 0.0 | 1.7 | 0.00 | 0.00 | 0.00 | 63 | 1024.3 |
| 20260502113902 | 38 | 124 | 0.9 | 2.6 | 0.00 | 0.00 | 0.00 | 62 | 1024.3 |
| 20260502112903 | 39 | 124 | 0.0 | 1.7 | 0.00 | 0.00 | 0.00 | 60 | 1024.4 |
| 20260502111901 | 38 | 124 | 0.9 | 1.7 | 0.00 | 0.00 | 0.00 | 61 | 1024.3 |
| 20260502111401 | 38 | 124 | 0.0 | 0.9 | 0.00 | 0.00 | 0.00 | 62 | 1024.5 |
| 20260502105901 | 38 | 124 | 1.7 | 2.6 | 0.00 | 0.00 | 0.00 | 63 | 1024.3 |
| 20260502105401 | 37 | 124 | 1.7 | 2.6 | 0.00 | 0.00 | 0.00 | 63 | 1024.4 |
| 20260502104902 | 37 | 124 | 0.0 | 0.0 | 0.00 | 0.00 | 0.00 | 64 | 1024.3 |
| 20260502104359 | 37 | 124 | 0.0 | 0.0 | 0.00 | 0.00 | 0.00 | 64 | 1024.3 |
| 20260502103901 | 38 | 124 | 0.0 | 0.9 | 0.00 | 0.00 | 0.00 | 63 | 1024.2 |
| 20260502103400 | 38 | 124 | 0.0 | 0.9 | 0.00 | 0.00 | 0.00 | 64 | 1024.2 |
| 20260502102900 | 37 | 124 | 0.0 | 0.9 | 0.00 | 0.00 | 0.00 | 63 | 1024.2 |
| 20260502102358 | 38 | 124 | 0.0 | 2.6 | 0.00 | 0.00 | 0.00 | 63 | 1024.2 |
| 20260502100859 | 37 | 124 | 0.0 | 0.9 | 0.00 | 0.00 | 0.00 | 64 | 1024.1 |
| 20260502100359 | 38 | 124 | 0.0 | 0.9 | 0.00 | 0.00 | 0.00 | 62 | 1024.1 |
| 20260502091357 | 38 | 125 | 0.0 | 0.0 | 0.00 | 0.00 | 0.00 | 63 | 1024.2 |
| 20260502090857 | 38 | 125 | 0.0 | 1.7 | 0.00 | 0.00 | 0.00 | 59 | 1023.9 |
| 20260502090358 | 39 | 125 | 0.0 | 1.7 | 0.00 | 0.00 | 0.00 | 59 | 1024.1 |
| 20260502071356 | 42 | 0 | 0.0 | 1.7 | 0.00 | 0.00 | 0.00 | 53 | 1023.8 |
| 20260502070855 | 41 | 130 | 0.0 | 0.0 | 0.00 | 0.00 | 0.00 | 51 | 1023.8 |
| 20260502065854 | 42 | 130 | 0.0 | 0.0 | 0.00 | 0.00 | 0.00 | 51 | 1023.7 |
| 20260502064355 | 41 | 130 | 0.0 | 3.5 | 0.00 | 0.00 | 0.00 | 53 | 1023.7 |
| 20260502063854 | 42 | 130 | 0.0 | 1.7 | 0.00 | 0.00 | 0.00 | 53 | 1023.6 |
| 20260502062355 | 41 | 131 | 0.0 | 0.0 | 0.00 | 0.00 | 0.00 | 52 | 1023.6 |
| 20260502061852 | 41 | 130 | 0.0 | 0.0 | 0.00 | 0.00 | 0.00 | 54 | 1023.6 |
| 20260502060853 | 41 | 133 | 0.0 | 2.6 | 0.00 | 0.00 | 0.00 | 54 | 1023.6 |
| 20260502060353 | 41 | 133 | 0.0 | 2.6 | 0.00 | 0.00 | 0.00 | 55 | 1023.6 |
| 20260502055854 | 41 | 131 | 0.9 | 1.7 | 0.00 | 0.00 | 0.00 | 51 | 1023.7 |
| 20260502055353 | 41 | 0 | 0.0 | 1.7 | 0.00 | 0.00 | 0.00 | 55 | 1023.6 |
| 20260502054854 | 42 | 0 | 0.0 | 2.6 | 0.00 | 0.00 | 0.00 | 53 | 1023.6 |
| 20260502054354 | 43 | 0 | 0.0 | 2.6 | 0.00 | 0.00 | 0.00 | 54 | 1023.7 |
| 20260502053853 | 44 | 134 | 0.0 | 2.6 | 0.00 | 0.00 | 0.00 | 52 | 1023.8 |
| 20260502052853 | 44 | 133 | 1.7 | 3.5 | 0.00 | 0.00 | 0.00 | 47 | 1023.8 |
| 20260502052354 | 44 | 133 | 1.7 | 2.6 | 0.00 | 0.00 | 0.00 | 48 | 1023.8 |
| 20260502050853 | 43 | 131 | 0.0 | 1.7 | 0.00 | 0.00 | 0.00 | 52 | 1023.8 |
| 20260502045853 | 44 | 131 | 0.0 | 1.7 | 0.00 | 0.00 | 0.00 | 53 | 1023.8 |
| 20260502044854 | 44 | 131 | 0.0 | 1.7 | 0.00 | 0.00 | 0.00 | 51 | 1023.9 |
| 20260502044353 | 44 | 131 | 0.0 | 2.6 | 0.00 | 0.00 | 0.00 | 53 | 1023.9 |
| 20260502042351 | 46 | 131 | 0.0 | 2.6 | 0.00 | 0.00 | 0.00 | 50 | 1023.9 |
| 20260502040850 | 49 | 125 | 0.0 | 0.0 | 0.00 | 0.00 | 0.00 | 45 | 1023.9 |
| 20260502040352 | 49 | 125 | 0.0 | 1.7 | 0.00 | 0.00 | 0.00 | 42 | 1023.8 |
| 20260502035350 | 49 | 125 | 0.0 | 0.0 | 0.00 | 0.00 | 0.00 | 44 | 1023.8 |
| 20260502034851 | 50 | 125 | 0.0 | 1.7 | 0.00 | 0.00 | 0.00 | 44 | 1023.8 |
| 20260502034351 | 51 | 127 | 0.0 | 3.5 | 0.00 | 0.00 | 0.00 | 44 | 1023.9 |
| 20260502033851 | 52 | 0 | 0.0 | 6.1 | 0.00 | 0.00 | 0.00 | 41 | 1023.8 |
| 20260502033350 | 52 | 118 | 3.5 | 7.8 | 0.00 | 0.00 | 0.00 | 38 | 1023.8 |
| 20260502032849 | 51 | 111 | 4.3 | 7.8 | 0.00 | 0.00 | 0.00 | 41 | 1023.8 |
| 20260502031349 | 46 | 28 | 0.0 | 0.0 | 0.00 | 0.00 | 0.00 | 51 | 1023.7 |
| 20260502030849 | 45 | 28 | 0.0 | 0.0 | 0.00 | 0.00 | 0.00 | 54 | 1023.6 |
| 20260502030348 | 45 | 28 | 0.0 | 0.0 | 0.00 | 0.00 | 0.00 | 58 | 1023.6 |
| 20260502025849 | 45 | 28 | 0.0 | 0.0 | 0.00 | 0.00 | 0.00 | 60 | 1023.6 |
| 20260502025350 | 46 | 28 | 0.0 | 0.0 | 0.00 | 0.00 | 0.00 | 59 | 1023.5 |
| 20260502024849 | 47 | 28 | 0.0 | 0.0 | 0.00 | 0.00 | 0.00 | 57 | 1023.5 |
| 20260502024350 | 48 | 0 | 0.0 | 0.0 | 0.00 | 0.00 | 0.00 | 56 | 1023.5 |
| 20260502023848 | 50 | 0 | 0.0 | 0.0 | 0.00 | 0.00 | 0.00 | 53 | 1023.5 |
| 20260502023348 | 51 | 0 | 0.0 | 0.0 | 0.00 | 0.00 | 0.00 | 46 | 1023.6 |
| 20260502022848 | 51 | 0 | 0.0 | 0.0 | 0.00 | 0.00 | 0.00 | 47 | 1023.5 |
| 20260502022348 | 52 | 0 | 0.0 | 0.0 | 0.00 | 0.00 | 0.00 | 48 | 1023.5 |
| 20260502021847 | 54 | 35 | 0.0 | 0.0 | 0.00 | 0.00 | 0.00 | 46 | 1023.5 |
| 20260502020848 | 58 | 0 | 0.0 | 0.0 | 0.00 | 0.00 | 0.00 | 38 | 1023.5 |
| 20260502020349 | 60 | 0 | 0.0 | 0.0 | 0.00 | 0.00 | 0.00 | 36 | 1023.6 |
| 20260502015849 | 61 | 0 | 0.0 | 0.0 | 0.00 | 0.00 | 0.00 | 33 | 1023.6 |
| 20260502015347 | 62 | 0 | 0.0 | 0.0 | 0.00 | 0.00 | 0.00 | 28 | 1023.6 |
| 20260502014848 | 62 | 0 | 0.0 | 0.0 | 0.00 | 0.00 | 0.00 | 27 | 1023.6 |
| 20260502014349 | 62 | 0 | 0.0 | 0.0 | 0.00 | 0.00 | 0.00 | 27 | 1023.6 |
| 20260502013848 | 63 | 0 | 0.0 | 0.0 | 0.00 | 0.00 | 0.00 | 26 | 1023.6 |
| 20260502012847 | 63 | 0 | 0.0 | 1.7 | 0.00 | 0.00 | 0.00 | 27 | 1023.6 |
| 20260502012346 | 64 | 0 | 0.0 | 1.7 | 0.00 | 0.00 | 0.00 | 27 | 1023.7 |
| 20260502011848 | 64 | 0 | 0.0 | 1.7 | 0.00 | 0.00 | 0.00 | 31 | 1023.7 |
| 20260502010847 | 64 | 0 | 0.9 | 2.6 | 0.00 | 0.00 | 0.00 | 27 | 1023.8 |
| 20260502010347 | 64 | 0 | 0.0 | 1.7 | 0.00 | 0.00 | 0.00 | 28 | 1023.8 |
| 20260502005847 | 64 | 0 | 0.9 | 1.7 | 0.00 | 0.00 | 0.00 | 25 | 1023.8 |
| 20260502005346 | 64 | 326 | 0.0 | 4.3 | 0.00 | 0.00 | 0.00 | 23 | 1023.8 |
| 20260502004847 | 64 | 326 | 2.6 | 4.3 | 0.00 | 0.00 | 0.00 | 24 | 1023.8 |
| 20260502004347 | 64 | 302 | 1.7 | 6.1 | 0.00 | 0.00 | 0.00 | 26 | 1023.8 |
| 20260502003846 | 65 | 285 | 3.5 | 6.1 | 0.00 | 0.00 | 0.00 | 28 | 1023.8 |
| 20260502003347 | 65 | 0 | 0.9 | 4.3 | 0.00 | 0.00 | 0.00 | 28 | 1023.8 |
| 20260502002846 | 64 | 353 | 0.9 | 4.3 | 0.00 | 0.00 | 0.00 | 27 | 1023.9 |
| 20260502002346 | 65 | 27 | 2.6 | 4.3 | 0.00 | 0.00 | 0.00 | 26 | 1023.9 |
| 20260502001845 | 65 | 17 | 1.7 | 3.5 | 0.00 | 0.00 | 0.00 | 27 | 1023.9 |
| 20260502001346 | 65 | 16 | 0.9 | 4.3 | 0.00 | 0.00 | 0.00 | 25 | 1023.8 |
| 20260502000845 | 65 | 17 | 1.7 | 4.3 | 0.00 | 0.00 | 0.00 | 26 | 1023.8 |
| 20260501235345 | 65 | 0 | 2.6 | 4.3 | 0.00 | 0.00 | 0.00 | 26 | 1023.9 |
| 20260501234845 | 65 | 275 | 1.7 | 4.3 | 0.00 | 0.00 | 0.00 | 32 | 1023.9 |
| 20260501234346 | 64 | 275 | 1.7 | 6.1 | 0.00 | 0.00 | 0.00 | 26 | 1024.1 |
| 20260501233845 | 64 | 264 | 2.6 | 6.1 | 0.00 | 0.00 | 0.00 | 26 | 1024.1 |
| 20260501233346 | 64 | 272 | 4.3 | 5.2 | 0.00 | 0.00 | 0.00 | 27 | 1024.1 |
| 20260501232844 | 65 | 296 | 3.5 | 13.0 | 0.00 | 0.00 | 0.00 | 26 | 1023.9 |
| 20260501232345 | 65 | 0 | 1.7 | 13.0 | 0.00 | 0.00 | 0.00 | 26 | 1024.1 |
| 20260501231844 | 65 | 0 | 0.9 | 2.6 | 0.00 | 0.00 | 0.00 | 28 | 1024.1 |
| 20260501231344 | 64 | 0 | 0.9 | 5.2 | 0.00 | 0.00 | 0.00 | 29 | 1024.1 |
| 20260501230843 | 64 | 0 | 1.7 | 5.2 | 0.00 | 0.00 | 0.00 | 25 | 1024.2 |
| 20260501225844 | 64 | 0 | 1.7 | 3.5 | 0.00 | 0.00 | 0.00 | 27 | 1024.2 |
| 20260501224844 | 64 | 317 | 1.7 | 3.5 | 0.00 | 0.00 | 0.00 | 23 | 1024.3 |
| 20260501224343 | 64 | 0 | 1.7 | 3.5 | 0.00 | 0.00 | 0.00 | 25 | 1024.3 |
| 20260501223842 | 64 | 316 | 1.7 | 4.3 | 0.00 | 0.00 | 0.00 | 28 | 1024.4 |
| 20260501223341 | 64 | 281 | 1.7 | 4.3 | 0.00 | 0.00 | 0.00 | 31 | 1024.4 |
| 20260501222841 | 63 | 0 | 0.9 | 3.5 | 0.00 | 0.00 | 0.00 | 26 | 1024.5 |
| 20260501222342 | 63 | 0 | 0.9 | 6.1 | 0.00 | 0.00 | 0.00 | 26 | 1024.6 |
| 20260501221841 | 63 | 0 | 2.6 | 6.1 | 0.00 | 0.00 | 0.00 | 26 | 1024.6 |
| 20260501221343 | 63 | 0 | 3.5 | 7.8 | 0.00 | 0.00 | 0.00 | 32 | 1024.8 |
| 20260501220841 | 63 | 0 | 2.6 | 7.8 | 0.00 | 0.00 | 0.00 | 25 | 1024.8 |
| 20260501220343 | 64 | 0 | 5.2 | 7.8 | 0.00 | 0.00 | 0.00 | 28 | 1024.9 |
| 20260501215341 | 63 | 0 | 1.7 | 4.3 | 0.00 | 0.00 | 0.00 | 25 | 1025.0 |
| 20260501214841 | 63 | 0 | 1.7 | 4.3 | 0.00 | 0.00 | 0.00 | 27 | 1025.1 |
| 20260501214342 | 63 | 0 | 2.6 | 4.3 | 0.00 | 0.00 | 0.00 | 23 | 1025.1 |
| 20260501213843 | 62 | 0 | 1.7 | 3.5 | 0.00 | 0.00 | 0.00 | 35 | 1025.2 |
| 20260501213341 | 62 | 0 | 1.7 | 8.7 | 0.00 | 0.00 | 0.00 | 27 | 1025.2 |
| 20260501212842 | 62 | 0 | 5.2 | 8.7 | 0.00 | 0.00 | 0.00 | 33 | 1025.2 |
| 20260501212341 | 63 | 268 | 5.2 | 8.7 | 0.00 | 0.00 | 0.00 | 31 | 1025.2 |
| 20260501210841 | 62 | 274 | 3.5 | 6.1 | 0.00 | 0.00 | 0.00 | 29 | 1025.5 |
| 20260501210341 | 62 | 255 | 0.9 | 4.3 | 0.00 | 0.00 | 0.00 | 31 | 1025.5 |